createdAt,value
2019-05-22T00:02:35.460Z,26.57
2019-05-22T00:05:17.499Z,26.80
2019-05-22T00:07:48.126Z,25.43
2019-05-22T00:10:19.685Z,26.70
2019-05-22T00:12:49.363Z,25.80
2019-05-22T00:15:19.095Z,26.77
2019-05-22T00:17:49.434Z,25.03
2019-05-22T00:20:20.175Z,26.03
2019-05-22T00:22:51.122Z,27.70
2019-05-22T00:25:20.883Z,26.67
2019-05-22T00:27:52.317Z,26.63
2019-05-22T00:30:22.703Z,25.97
2019-05-22T00:32:51.755Z,24.90
2019-05-22T00:35:22.683Z,25.93
2019-05-22T00:37:51.784Z,25.30
2019-05-22T00:40:22.363Z,25.23
2019-05-22T00:43:03.267Z,24.47
2019-05-22T00:45:24.684Z,25.60
2019-05-22T00:47:55.050Z,23.50
2019-05-22T00:50:29.117Z,23.40
2019-05-22T00:53:01.370Z,23.47
2019-05-22T00:55:48.156Z,21.83
2019-05-22T00:58:19.791Z,23.40
2019-05-22T01:00:50.127Z,23.10
2019-05-22T01:03:22.498Z,23.57
2019-05-22T01:05:51.866Z,22.00
2019-05-22T01:08:21.684Z,21.93
2019-05-22T01:10:54.773Z,21.77
2019-05-22T01:13:25.508Z,22.00
2019-05-22T01:15:55.170Z,21.23
2019-05-22T01:18:25.638Z,21.23
2019-05-22T01:20:57.841Z,22.63
2019-05-22T01:23:29.454Z,21.87
2019-05-22T01:26:00.122Z,19.97
2019-05-22T01:28:30.349Z,20.30
2019-05-22T01:31:06.938Z,20.30
2019-05-22T01:33:40.780Z,20.77
2019-05-22T01:36:17.342Z,21.37
2019-05-22T01:38:46.036Z,22.23
2019-05-22T01:41:18.674Z,21.70
2019-05-22T01:43:50.334Z,21.37
2019-05-22T01:46:21.091Z,20.87
2019-05-22T01:48:53.915Z,22.30
2019-05-22T01:51:22.643Z,21.17
2019-05-22T01:53:51.870Z,21.40
2019-05-22T01:56:21.163Z,22.37
2019-05-22T01:58:50.709Z,22.17
2019-05-22T02:01:21.745Z,21.43
2019-05-22T02:03:52.122Z,22.07
2019-05-22T02:06:23.192Z,22.07
2019-05-22T02:08:56.479Z,22.63
2019-05-22T02:11:27.350Z,23.13
2019-05-22T02:14:12.548Z,23.57
2019-05-22T02:16:56.297Z,24.20
2019-05-22T02:19:16.519Z,23.10
2019-05-22T02:21:49.471Z,22.90
2019-05-22T02:24:18.665Z,21.43
2019-05-22T02:26:47.943Z,23.00
2019-05-22T02:29:19.679Z,22.30
2019-05-22T02:31:52.977Z,22.10
2019-05-22T02:34:21.507Z,22.57
2019-05-22T02:36:50.200Z,23.17
2019-05-22T02:39:26.671Z,22.60
2019-05-22T02:42:00.111Z,22.53
2019-05-22T02:44:29.817Z,22.97
2019-05-22T02:47:16.767Z,22.30
2019-05-22T02:49:32.710Z,22.00
2019-05-22T02:52:02.921Z,21.37
2019-05-22T02:54:32.599Z,20.53
2019-05-22T02:57:02.191Z,21.30
2019-05-22T02:59:31.388Z,24.10
2019-05-22T03:02:01.950Z,22.43
2019-05-22T03:04:53.477Z,22.47
2019-05-22T03:07:24.641Z,23.87
2019-05-22T03:09:53.998Z,22.90
2019-05-22T03:12:24.402Z,23.93
2019-05-22T03:14:54.541Z,22.87
2019-05-22T03:17:31.045Z,23.40
2019-05-22T03:20:04.419Z,22.50
2019-05-22T03:22:40.427Z,21.63
2019-05-22T03:25:15.521Z,21.63
2019-05-22T03:27:50.229Z,21.40
2019-05-22T03:30:23.842Z,22.20
2019-05-22T03:32:54.747Z,21.40
2019-05-22T03:35:26.245Z,22.20
2019-05-22T03:37:56.976Z,21.10
2019-05-22T03:40:28.777Z,21.40
2019-05-22T03:42:58.036Z,21.17
2019-05-22T03:45:29.334Z,21.17
2019-05-22T03:47:59.622Z,21.20
2019-05-22T03:50:29.534Z,22.40
2019-05-22T03:53:01.246Z,20.30
2019-05-22T03:55:29.967Z,21.33
2019-05-22T03:57:59.464Z,21.03
2019-05-22T04:00:29.238Z,22.07
2019-05-22T04:02:57.743Z,22.80
2019-05-22T04:05:27.604Z,22.13
2019-05-22T04:07:58.396Z,21.73
2019-05-22T04:10:30.491Z,22.17
2019-05-22T04:13:00.324Z,21.77
2019-05-22T04:15:28.903Z,21.63
2019-05-22T04:17:58.959Z,22.37
2019-05-22T04:20:30.228Z,21.60
2019-05-22T04:22:59.713Z,22.00
2019-05-22T04:25:29.077Z,20.83
2019-05-22T04:27:58.468Z,20.77
2019-05-22T04:30:27.538Z,22.10
2019-05-22T04:32:56.857Z,22.77
2019-05-22T04:35:26.645Z,23.20
2019-05-22T04:37:55.937Z,22.03
2019-05-22T04:40:31.343Z,23.93
2019-05-22T04:43:00.438Z,23.90
2019-05-22T04:45:30.266Z,25.73
2019-05-22T04:48:03.731Z,22.47
2019-05-22T04:50:33.928Z,23.87
2019-05-22T04:53:02.878Z,23.70
2019-05-22T04:55:33.014Z,25.17
2019-05-22T04:58:11.118Z,24.33
2019-05-22T05:00:40.022Z,23.93
2019-05-22T05:03:09.074Z,25.30
2019-05-22T05:05:45.989Z,24.20
2019-05-22T05:08:15.276Z,24.30
2019-05-22T05:10:47.122Z,24.23
2019-05-22T05:13:15.871Z,25.63
2019-05-22T05:15:45.004Z,24.47
2019-05-22T05:18:14.386Z,22.57
2019-05-22T05:20:44.463Z,23.93
2019-05-22T05:23:13.314Z,22.43
2019-05-22T05:25:43.603Z,22.77
2019-05-22T05:28:12.637Z,24.17
2019-05-22T05:30:41.503Z,23.07
2019-05-22T05:33:11.184Z,23.13
2019-05-22T05:35:40.276Z,23.67
2019-05-22T05:38:11.302Z,23.73
2019-05-22T05:40:44.402Z,23.53
2019-05-22T05:43:15.194Z,22.73
2019-05-22T05:45:46.660Z,21.27
2019-05-22T05:48:17.522Z,21.40
2019-05-22T05:51:08.531Z,21.33
2019-05-22T05:53:55.121Z,22.43
2019-05-22T05:56:26.912Z,22.43
2019-05-22T05:58:57.866Z,24.43
2019-05-22T06:01:28.336Z,23.23
2019-05-22T06:03:58.699Z,23.93
2019-05-22T06:06:33.667Z,21.87
2019-05-22T06:09:04.341Z,22.60
2019-05-22T06:11:42.994Z,21.83
2019-05-22T06:14:24.036Z,22.70
2019-05-22T06:17:04.878Z,23.30
2019-05-22T06:19:36.863Z,22.77
2019-05-22T06:22:05.730Z,21.73
2019-05-22T06:24:37.924Z,23.10
2019-05-22T06:27:16.331Z,21.27
2019-05-22T06:30:06.456Z,21.07
2019-05-22T06:33:09.039Z,21.00
2019-05-22T06:35:38.877Z,22.97
2019-05-22T06:38:14.954Z,21.60
2019-05-22T06:40:44.121Z,21.53
2019-05-22T06:43:23.867Z,19.07
2019-05-22T06:45:52.833Z,20.80
2019-05-22T06:48:21.270Z,21.37
2019-05-22T06:50:50.271Z,20.40
2019-05-22T06:53:19.242Z,20.17
2019-05-22T06:55:48.529Z,20.10
2019-05-22T06:58:17.658Z,20.23
2019-05-22T07:00:46.559Z,19.20
2019-05-22T07:03:15.927Z,17.93
2019-05-22T07:05:44.785Z,17.87
2019-05-22T07:08:13.728Z,18.63
2019-05-22T07:10:43.395Z,18.20
2019-05-22T07:13:13.176Z,18.40
2019-05-22T07:15:42.134Z,18.90
2019-05-22T07:18:13.475Z,17.80
2019-05-22T07:20:42.842Z,18.63
2019-05-22T07:23:13.203Z,17.23
2019-05-22T07:25:44.487Z,18.90
2019-05-22T07:28:15.661Z,18.90
2019-05-22T07:30:45.145Z,17.13
2019-05-22T07:33:14.499Z,19.03
2019-05-22T07:36:04.593Z,17.80
2019-05-22T07:38:15.767Z,18.17
2019-05-22T07:40:44.815Z,17.33
2019-05-22T07:43:14.816Z,16.83
2019-05-22T07:45:44.187Z,17.73
2019-05-22T07:48:13.846Z,16.90
2019-05-22T07:50:48.535Z,15.70
2019-05-22T07:53:15.910Z,15.97
2019-05-22T07:55:45.500Z,15.97
2019-05-22T07:58:16.138Z,15.73
2019-05-22T08:00:54.777Z,14.23
2019-05-22T08:03:25.092Z,15.83
2019-05-22T08:05:56.165Z,14.40
2019-05-22T08:08:26.617Z,14.90
2019-05-22T08:10:56.411Z,14.50
2019-05-22T08:13:26.541Z,16.97
2019-05-22T08:15:55.556Z,15.67
2019-05-22T08:18:26.213Z,14.20
2019-05-22T08:20:54.932Z,13.43
2019-05-22T08:23:26.099Z,14.23
2019-05-22T08:25:56.273Z,13.90
2019-05-22T08:28:25.536Z,12.80
2019-05-22T08:30:54.844Z,14.00
2019-05-22T08:33:24.458Z,14.50
2019-05-22T08:35:54.095Z,13.47
2019-05-22T08:38:28.239Z,15.53
2019-05-22T08:40:59.926Z,15.23
2019-05-22T08:43:30.256Z,13.27
2019-05-22T08:46:00.257Z,13.30
2019-05-22T08:48:30.533Z,13.70
2019-05-22T08:51:00.167Z,12.93
2019-05-22T08:53:45.663Z,11.30
2019-05-22T08:56:00.782Z,11.43
2019-05-22T08:58:30.156Z,10.90
2019-05-22T09:00:59.254Z,12.33
2019-05-22T09:03:28.650Z,11.77
2019-05-22T09:05:57.481Z,11.17
2019-05-22T09:08:26.443Z,12.03
2019-05-22T09:10:55.227Z,10.97
2019-05-22T09:13:24.015Z,11.00
2019-05-22T09:15:53.680Z,11.00
2019-05-22T09:18:22.877Z,10.73
2019-05-22T09:20:52.137Z,9.13
2019-05-22T09:23:21.188Z,8.60
2019-05-22T09:25:50.514Z,11.67
2019-05-22T09:28:19.379Z,9.27
2019-05-22T09:30:48.293Z,10.00
2019-05-22T09:33:18.539Z,9.40
2019-05-22T09:35:47.795Z,7.80
2019-05-22T09:38:16.483Z,8.20
2019-05-22T09:40:45.591Z,9.00
2019-05-22T09:43:14.556Z,8.10
2019-05-22T09:45:43.299Z,7.97
2019-05-22T09:48:12.514Z,8.73
2019-05-22T09:50:41.895Z,8.43
2019-05-22T09:53:10.649Z,7.17
2019-05-22T09:55:40.011Z,6.53
2019-05-22T09:58:09.074Z,5.90
2019-05-22T10:00:38.447Z,6.67
2019-05-22T10:03:07.606Z,6.93
2019-05-22T10:05:36.647Z,7.60
2019-05-22T10:08:05.655Z,8.70
2019-05-22T10:10:34.646Z,7.07
2019-05-22T10:13:03.722Z,6.30
2019-05-22T10:15:33.161Z,6.47
2019-05-22T10:18:02.009Z,5.30
2019-05-22T10:20:31.176Z,4.60
2019-05-22T10:23:14.597Z,5.37
2019-05-22T10:25:31.954Z,3.50
2019-05-22T10:28:00.638Z,1.97
2019-05-22T10:30:29.910Z,2.60
2019-05-22T10:32:58.691Z,3.17
2019-05-22T10:35:29.221Z,2.80
2019-05-22T10:37:57.908Z,2.50
2019-05-22T10:40:27.091Z,3.30
2019-05-22T10:42:56.693Z,3.30
2019-05-22T10:45:27.198Z,2.10
2019-05-22T10:47:56.872Z,2.33
2019-05-22T10:50:26.591Z,2.20
2019-05-22T10:52:55.835Z,2.30
2019-05-22T10:55:25.209Z,2.90
2019-05-22T10:57:54.131Z,1.97
2019-05-22T11:00:24.975Z,3.33
2019-05-22T11:02:53.901Z,3.10
2019-05-22T11:05:23.266Z,4.10
2019-05-22T11:07:52.441Z,3.90
2019-05-22T11:10:24.456Z,3.47
2019-05-22T11:12:53.908Z,2.60
2019-05-22T11:15:23.663Z,2.57
2019-05-22T11:17:53.220Z,2.87
2019-05-22T11:20:23.675Z,2.90
2019-05-22T11:22:52.969Z,2.40
2019-05-22T11:25:22.776Z,2.67
2019-05-22T11:27:53.704Z,2.50
2019-05-22T11:30:24.285Z,2.17
2019-05-22T11:32:53.912Z,2.10
2019-05-22T11:35:23.848Z,2.10
2019-05-22T11:37:53.295Z,1.90
2019-05-22T11:40:22.818Z,2.33
2019-05-22T11:42:52.971Z,2.20
2019-05-22T11:45:22.241Z,2.17
2019-05-22T11:47:51.536Z,2.30
2019-05-22T11:50:21.877Z,2.50
2019-05-22T11:52:50.862Z,2.50
2019-05-22T11:55:20.365Z,2.40
2019-05-22T11:57:49.457Z,2.50
2019-05-22T12:00:20.136Z,2.60
2019-05-22T12:02:49.911Z,2.70
2019-05-22T12:05:19.859Z,2.70
2019-05-22T12:07:49.063Z,2.40
2019-05-22T12:10:22.783Z,2.73
2019-05-22T12:12:53.587Z,2.80
2019-05-22T12:15:26.467Z,2.43
2019-05-22T12:17:55.823Z,2.97
2019-05-22T12:20:26.088Z,3.40
2019-05-22T12:22:55.834Z,3.20
2019-05-22T12:25:25.717Z,2.80
2019-05-22T12:27:55.082Z,2.63
2019-05-22T12:30:24.578Z,2.87
2019-05-22T12:32:53.395Z,3.20
2019-05-22T12:35:22.061Z,2.80
2019-05-22T12:37:51.221Z,2.77
2019-05-22T12:40:20.885Z,2.67
2019-05-22T12:42:51.461Z,2.40
2019-05-22T12:45:25.864Z,2.73
2019-05-22T12:47:54.910Z,2.40
2019-05-22T12:50:27.312Z,2.77
2019-05-22T12:52:56.115Z,2.80
2019-05-22T12:55:24.995Z,2.90
2019-05-22T12:57:53.767Z,2.93
2019-05-22T13:00:25.947Z,2.70
2019-05-22T13:02:55.823Z,3.20
2019-05-22T13:05:24.927Z,3.37
2019-05-22T13:07:53.995Z,3.00
2019-05-22T13:10:24.174Z,3.17
2019-05-22T13:12:53.057Z,3.20
2019-05-22T13:15:23.244Z,3.20
2019-05-22T13:17:54.469Z,3.10
2019-05-22T13:20:40.991Z,2.70
2019-05-22T13:22:56.945Z,2.70
2019-05-22T13:25:33.067Z,2.90
2019-05-22T13:28:03.100Z,2.83
2019-05-22T13:30:34.885Z,2.70
2019-05-22T13:33:05.038Z,2.80
2019-05-22T13:35:35.042Z,3.07
2019-05-22T13:38:04.602Z,2.57
2019-05-22T13:40:34.657Z,2.73
2019-05-22T13:43:04.374Z,2.33
2019-05-22T13:45:33.618Z,2.40
2019-05-22T13:48:02.382Z,2.10
2019-05-22T13:50:31.351Z,2.50
2019-05-22T13:53:03.119Z,2.13
2019-05-22T13:55:32.971Z,2.50
2019-05-22T13:58:02.169Z,2.47
2019-05-22T14:00:31.155Z,2.50
2019-05-22T14:03:00.237Z,2.30
2019-05-22T14:05:29.642Z,2.00
2019-05-22T14:07:58.848Z,1.83
2019-05-22T14:10:30.391Z,1.80
2019-05-22T14:13:00.963Z,1.90
2019-05-22T14:15:48.310Z,1.77
2019-05-22T14:18:01.074Z,2.10
2019-05-22T14:20:30.511Z,1.97
2019-05-22T14:22:59.202Z,2.00
2019-05-22T14:25:28.342Z,1.83
2019-05-22T14:27:59.170Z,2.00
2019-05-22T14:30:30.052Z,1.80
2019-05-22T14:33:04.343Z,2.07
2019-05-22T14:35:46.983Z,2.07
2019-05-22T14:38:04.227Z,2.33
2019-05-22T14:40:33.842Z,2.10
2019-05-22T14:43:02.667Z,1.80
2019-05-22T14:45:31.452Z,2.10
2019-05-22T14:48:00.318Z,2.20
2019-05-22T14:50:32.967Z,1.93
2019-05-22T14:53:01.864Z,1.90
2019-05-22T14:55:35.788Z,2.10
2019-05-22T14:58:05.620Z,1.87
2019-05-22T15:00:36.358Z,1.90
2019-05-22T15:03:06.709Z,2.10
2019-05-22T15:05:35.929Z,2.30
2019-05-22T15:08:06.283Z,2.30
2019-05-22T15:10:36.438Z,2.03
2019-05-22T15:13:05.950Z,1.80
2019-05-22T15:15:35.276Z,2.20
2019-05-22T15:18:04.416Z,2.37
2019-05-22T15:20:37.715Z,2.57
2019-05-22T15:23:07.599Z,2.47
2019-05-22T15:25:36.826Z,2.50
2019-05-22T15:28:07.308Z,2.17
2019-05-22T15:30:36.399Z,2.20
2019-05-22T15:33:05.675Z,2.57
2019-05-22T15:35:35.415Z,2.43
2019-05-22T15:38:05.116Z,2.30
2019-05-22T15:40:34.703Z,2.17
2019-05-22T15:43:06.908Z,1.80
2019-05-22T15:45:36.647Z,2.17
2019-05-22T15:48:13.511Z,2.30
2019-05-22T15:50:44.825Z,2.10
2019-05-22T15:53:15.354Z,2.03
2019-05-22T15:55:47.819Z,2.37
2019-05-22T15:58:18.098Z,2.20
2019-05-22T16:00:47.745Z,2.17
2019-05-22T16:03:22.698Z,2.50
2019-05-22T16:05:53.580Z,2.10
2019-05-22T16:08:23.034Z,2.33
2019-05-22T16:10:52.830Z,2.27
2019-05-22T16:13:22.888Z,2.20
2019-05-22T16:15:54.560Z,2.80
2019-05-22T16:18:29.471Z,3.57
2019-05-22T16:21:02.059Z,3.07
2019-05-22T16:23:33.411Z,2.60
2019-05-22T16:26:04.541Z,2.80
2019-05-22T16:28:36.595Z,2.50
2019-05-22T16:31:08.260Z,2.20
2019-05-22T16:33:37.939Z,2.80
2019-05-22T16:36:06.916Z,2.50
2019-05-22T16:38:37.540Z,2.50
2019-05-22T16:41:07.106Z,2.73
2019-05-22T16:43:49.072Z,2.60
2019-05-22T16:46:14.144Z,2.50
2019-05-22T16:48:44.115Z,2.50
2019-05-22T16:51:15.386Z,2.53
2019-05-22T16:53:46.999Z,2.73
2019-05-22T16:56:17.273Z,2.30
2019-05-22T16:58:46.311Z,2.50
2019-05-22T17:01:17.775Z,2.47
2019-05-22T17:03:49.487Z,2.60
2019-05-22T17:06:19.051Z,2.30
2019-05-22T17:08:47.998Z,2.70
2019-05-22T17:11:17.435Z,2.60
2019-05-22T17:13:47.243Z,2.37
2019-05-22T17:16:16.851Z,2.60
2019-05-22T17:18:48.355Z,2.40
2019-05-22T17:21:17.671Z,2.30
2019-05-22T17:23:47.131Z,2.43
2019-05-22T17:26:16.324Z,2.50
2019-05-22T17:28:45.455Z,2.60
2019-05-22T17:31:15.484Z,2.20
2019-05-22T17:33:44.691Z,2.30
2019-05-22T17:36:15.076Z,2.17
2019-05-22T17:38:44.233Z,4.00
2019-05-22T17:41:13.798Z,3.50
2019-05-22T17:43:43.968Z,4.03
2019-05-22T17:46:15.125Z,2.40
2019-05-22T17:48:44.375Z,2.40
2019-05-22T17:51:14.251Z,2.00
2019-05-22T17:53:43.119Z,2.33
2019-05-22T17:56:12.521Z,2.40
2019-05-22T17:58:41.235Z,2.20
2019-05-22T18:01:10.079Z,2.47
2019-05-22T19:02:44.550Z,3.57
2019-05-22T19:05:14.197Z,4.70
2019-05-22T19:07:43.499Z,4.80
2019-05-22T19:10:13.751Z,3.77
2019-05-22T19:12:43.129Z,3.53
2019-05-22T19:15:17.261Z,3.50
2019-05-22T19:17:47.872Z,3.53
2019-05-22T19:20:17.572Z,3.90
2019-05-22T19:22:59.356Z,3.33
2019-05-22T19:25:19.564Z,3.30
2019-05-22T19:27:49.476Z,3.40
2019-05-22T19:30:22.170Z,3.07
2019-05-22T19:32:51.049Z,3.03
2019-05-22T19:35:21.086Z,3.03
2019-05-22T19:37:50.597Z,3.63
2019-05-22T19:40:19.859Z,3.40
2019-05-22T19:42:49.393Z,3.63
2019-05-22T19:45:18.935Z,2.80
2019-05-22T19:47:52.895Z,2.90
2019-05-22T19:50:24.020Z,3.00
2019-05-22T19:52:55.010Z,2.50
2019-05-22T19:55:26.012Z,2.40
2019-05-22T19:57:55.299Z,2.80
2019-05-22T20:00:24.691Z,2.80
2019-05-22T20:02:55.098Z,2.70
2019-05-22T20:05:25.527Z,2.67
2019-05-22T20:07:54.822Z,2.90
2019-05-22T20:10:25.363Z,2.70
2019-05-22T20:12:55.429Z,2.67
2019-05-22T20:15:24.106Z,2.90
2019-05-22T20:17:53.322Z,2.50
2019-05-22T20:20:23.313Z,2.80
2019-05-22T20:22:52.247Z,2.77
2019-05-22T20:25:22.163Z,2.93
2019-05-22T20:27:51.324Z,3.03
2019-05-22T20:30:21.866Z,3.10
2019-05-22T20:32:51.406Z,3.10
2019-05-22T20:35:20.352Z,3.00
2019-05-22T20:37:49.236Z,2.97
2019-05-22T20:40:20.378Z,3.00
2019-05-22T20:42:49.320Z,2.87
2019-05-22T20:45:21.101Z,3.27
2019-05-22T20:47:54.557Z,3.13
2019-05-22T20:50:25.314Z,3.10
2019-05-22T20:52:55.067Z,3.10
2019-05-22T20:55:24.184Z,3.10
2019-05-22T20:57:53.263Z,3.47
2019-05-22T21:00:23.220Z,2.80
2019-05-22T21:02:54.889Z,3.00
2019-05-22T21:05:25.423Z,3.07
2019-05-22T21:07:57.145Z,2.90
2019-05-22T21:10:27.141Z,3.20
2019-05-22T21:12:56.800Z,3.03
2019-05-22T21:15:27.712Z,3.03
2019-05-22T21:17:56.433Z,3.53
2019-05-22T21:20:27.308Z,3.30
2019-05-22T21:22:57.177Z,3.00
2019-05-22T21:25:26.201Z,3.50
2019-05-22T21:27:55.148Z,3.40
2019-05-22T21:30:26.802Z,3.33
2019-05-22T21:32:55.774Z,3.70
2019-05-22T21:35:24.643Z,3.27
2019-05-22T21:37:53.627Z,3.20
2019-05-22T21:40:24.507Z,3.00
2019-05-22T21:42:54.089Z,3.37
2019-05-22T21:45:24.195Z,3.20
2019-05-22T21:47:53.247Z,3.10
2019-05-22T21:50:22.598Z,3.10
2019-05-22T21:52:52.067Z,3.60
2019-05-22T21:55:21.976Z,3.47
2019-05-22T21:57:51.042Z,3.10
2019-05-22T22:00:42.782Z,3.00
2019-05-22T22:03:19.283Z,2.93
2019-05-22T22:05:48.274Z,2.70
2019-05-22T22:08:17.528Z,3.07
2019-05-22T22:10:46.779Z,2.97
2019-05-22T22:13:16.161Z,2.87
2019-05-22T22:15:46.128Z,2.87
2019-05-22T22:18:15.799Z,3.00
2019-05-22T22:20:45.606Z,3.00
2019-05-22T22:23:16.971Z,3.13
2019-05-22T22:25:46.333Z,3.20
2019-05-22T22:28:16.411Z,3.20
2019-05-22T22:30:53.567Z,3.20
2019-05-22T22:33:25.315Z,3.17
2019-05-22T22:35:55.059Z,3.10
2019-05-22T22:38:27.896Z,3.00
2019-05-22T22:40:57.518Z,3.60
2019-05-22T22:43:30.314Z,3.70
2019-05-22T22:46:05.687Z,3.40
2019-05-22T22:48:39.160Z,3.17
2019-05-22T22:51:12.233Z,3.20
2019-05-22T22:53:42.290Z,3.33
2019-05-22T22:56:11.948Z,3.07
2019-05-22T22:58:41.202Z,3.20
2019-05-22T23:01:13.557Z,3.27
2019-05-22T23:03:45.538Z,3.20
2019-05-22T23:06:15.245Z,3.20
2019-05-22T23:08:44.999Z,3.03
2019-05-22T23:11:15.611Z,3.20
2019-05-22T23:13:45.127Z,3.50
2019-05-22T23:16:15.085Z,3.50
2019-05-22T23:18:48.453Z,3.60
2019-05-22T23:21:17.583Z,3.90
2019-05-22T23:23:46.123Z,3.83
2019-05-22T23:26:16.344Z,4.80
2019-05-22T23:28:45.231Z,4.80
2019-05-22T23:31:14.797Z,5.03
2019-05-22T23:33:44.075Z,5.43
2019-05-22T23:36:13.529Z,5.87
2019-05-22T23:38:43.355Z,5.70
2019-05-22T23:41:13.846Z,5.60
2019-05-22T23:43:44.820Z,5.70
2019-05-22T23:46:15.031Z,5.80
2019-05-22T23:48:44.915Z,5.97
2019-05-22T23:51:14.291Z,5.63
2019-05-22T23:53:44.627Z,5.30
2019-05-22T23:56:14.492Z,5.30
2019-05-22T23:58:52.151Z,5.43
